createdAt,value
2018-08-09T00:03:36.961Z,1014.7
2018-08-09T00:08:36.956Z,1014.7
2018-08-09T00:13:37.173Z,1014.7
2018-08-09T00:18:37.092Z,1014.5
2018-08-09T00:23:36.968Z,1014.5
2018-08-09T00:28:37.092Z,1014.5
2018-08-09T00:33:37.175Z,1014.5
2018-08-09T00:38:37.345Z,1014.4
2018-08-09T00:43:49.507Z,1014.4
2018-08-09T00:48:49.245Z,1014.4
2018-08-09T00:53:49.429Z,1014.3
2018-08-09T00:58:49.453Z,1014.4
2018-08-09T01:03:49.394Z,1014.2
2018-08-09T01:08:49.262Z,1014.4
2018-08-09T01:13:49.455Z,1014.2
2018-08-09T01:18:49.377Z,1014.4
2018-08-09T01:23:49.287Z,1014.4
2018-08-09T01:28:49.463Z,1014.5
2018-08-09T01:33:49.362Z,1014.5
2018-08-09T01:38:49.409Z,1014.6
2018-08-09T01:43:49.355Z,1014.7
2018-08-09T01:48:49.361Z,1014.8
2018-08-09T01:54:01.802Z,1014.8
2018-08-09T01:59:01.523Z,1014.8
2018-08-09T02:04:01.600Z,1014.9
2018-08-09T02:09:01.714Z,1014.9
2018-08-09T02:14:01.651Z,1014.8
2018-08-09T02:19:01.486Z,1014.9
2018-08-09T02:24:01.543Z,1014.9
2018-08-09T02:29:01.535Z,1014.9
2018-08-09T02:34:01.532Z,1015
2018-08-09T02:39:13.665Z,1014.9
2018-08-09T02:44:13.344Z,1015
2018-08-09T02:49:13.501Z,1014.8
2018-08-09T02:54:13.599Z,1015
2018-08-09T02:59:13.512Z,1014.9
2018-08-09T03:04:13.386Z,1014.9
2018-08-09T03:09:13.586Z,1014.8
2018-08-09T03:14:13.459Z,1014.8
2018-08-09T03:19:13.455Z,1014.8
2018-08-09T03:24:13.596Z,1014.8
2018-08-09T03:29:13.619Z,1014.9
2018-08-09T03:34:13.469Z,1014.9
2018-08-09T03:39:13.430Z,1014.9
2018-08-09T03:44:13.603Z,1015
2018-08-09T03:49:25.462Z,1015.1
2018-08-09T03:54:25.393Z,1015
2018-08-09T03:59:25.427Z,1015
2018-08-09T04:04:25.359Z,1015
2018-08-09T04:09:25.332Z,1015
2018-08-09T04:14:25.202Z,1015.1
2018-08-09T04:19:25.465Z,1015.1
2018-08-09T04:24:25.306Z,1015.2
2018-08-09T04:29:25.443Z,1015
2018-08-09T04:34:40.425Z,1015
2018-08-09T04:39:40.303Z,1015
2018-08-09T04:44:40.359Z,1014.8
2018-08-09T04:49:40.163Z,1014.8
2018-08-09T04:54:40.144Z,1014.8
2018-08-09T04:59:41.031Z,1014.7
2018-08-09T05:04:40.900Z,1014.7
2018-08-09T05:09:40.747Z,1014.7
2018-08-09T05:14:41.378Z,1014.6
2018-08-09T05:19:40.899Z,1014.6
2018-08-09T05:24:40.949Z,1014.5
2018-08-09T05:29:40.756Z,1014.5
2018-08-09T05:34:41.448Z,1014.4
2018-08-09T05:39:41.164Z,1014.4
2018-08-09T05:44:53.600Z,1014.4
2018-08-09T05:49:53.550Z,1014.3
2018-08-09T05:54:53.341Z,1014.3
2018-08-09T05:59:53.325Z,1014.2
2018-08-09T06:04:53.348Z,1014.2
2018-08-09T06:09:53.347Z,1014.2
2018-08-09T06:14:53.323Z,1014.2
2018-08-09T06:19:55.595Z,1014.2
2018-08-09T06:24:55.488Z,1014.1
2018-08-09T06:30:04.493Z,1014
2018-08-09T06:35:04.237Z,1014.1
2018-08-09T06:40:04.232Z,1013.9
2018-08-09T06:45:04.233Z,1013.8
2018-08-09T06:50:04.460Z,1013.7
2018-08-09T06:55:04.495Z,1013.6
2018-08-09T07:00:04.469Z,1013.7
2018-08-09T07:05:04.617Z,1013.5
2018-08-09T07:10:04.466Z,1013.4
2018-08-09T07:15:15.537Z,1013.3
2018-08-09T07:20:16.633Z,1013.4
2018-08-09T07:25:15.280Z,1013.2
2018-08-09T07:30:15.267Z,1013.2
2018-08-09T07:35:15.268Z,1013.3
2018-08-09T07:40:15.478Z,1013.2
2018-08-09T07:45:15.489Z,1013.1
2018-08-09T07:50:15.275Z,1013.1
2018-08-09T07:55:15.457Z,1013.1
2018-08-09T08:00:29.022Z,1013
2018-08-09T08:05:28.231Z,1013.1
2018-08-09T08:10:28.217Z,1012.9
2018-08-09T08:15:28.271Z,1012.9
2018-08-09T08:20:28.392Z,1012.8
2018-08-09T08:25:28.364Z,1012.8
2018-08-09T08:30:29.197Z,1012.7
2018-08-09T08:35:28.390Z,1012.7
2018-08-09T08:40:28.387Z,1012.7
2018-08-09T08:45:40.949Z,1012.5
2018-08-09T08:50:40.537Z,1012.3
2018-08-09T08:55:40.650Z,1012.3
2018-08-09T09:00:40.542Z,1012.4
2018-08-09T09:05:40.753Z,1012.4
2018-08-09T09:10:40.527Z,1012.2
2018-08-09T09:15:40.744Z,1012.1
2018-08-09T09:20:40.669Z,1012
2018-08-09T09:25:40.721Z,1011.9
2018-08-09T09:30:52.395Z,1011.7
2018-08-09T09:35:52.158Z,1011.7
2018-08-09T09:40:52.139Z,1011.5
2018-08-09T09:45:52.134Z,1011.4
2018-08-09T09:50:52.171Z,1011.4
2018-08-09T09:55:52.261Z,1011.3
2018-08-09T10:00:53.600Z,1011.2
2018-08-09T10:05:52.161Z,1011.2
2018-08-09T10:10:52.160Z,1011
2018-08-09T10:15:52.297Z,1010.8
2018-08-09T10:20:52.166Z,1010.8
2018-08-09T10:25:52.162Z,1010.6
2018-08-09T10:30:52.177Z,1010.8
2018-08-09T10:35:52.170Z,1010.5
2018-08-09T10:41:05.119Z,1010.5
2018-08-09T10:46:04.853Z,1010.4
2018-08-09T10:51:04.884Z,1010.3
2018-08-09T10:56:04.870Z,1010.1
2018-08-09T11:01:04.869Z,1010.1
2018-08-09T11:06:04.870Z,1010.1
2018-08-09T11:11:04.867Z,1010.2
2018-08-09T11:16:04.870Z,1010
2018-08-09T11:21:04.857Z,1009.9
2018-08-09T11:26:16.856Z,1009.9
2018-08-09T11:31:16.605Z,1009.8
2018-08-09T11:36:16.751Z,1009.7
2018-08-09T11:41:16.621Z,1009.8
2018-08-09T11:46:16.623Z,1009.7
2018-08-09T11:51:16.651Z,1009.7
2018-08-09T11:56:17.183Z,1009.6
2018-08-09T12:01:17.710Z,1009.6
2018-08-09T12:06:17.431Z,1009.5
2018-08-09T12:11:29.545Z,1009.5
2018-08-09T12:16:29.313Z,1009.5
2018-08-09T12:21:29.273Z,1009.4
2018-08-09T12:26:29.245Z,1009.4
2018-08-09T12:31:29.355Z,1009.4
2018-08-09T12:36:29.435Z,1009.2
2018-08-09T12:41:29.249Z,1009.1
2018-08-09T12:46:29.581Z,1009.1
2018-08-09T12:51:29.294Z,1009
2018-08-09T12:56:41.885Z,1008.9
2018-08-09T13:01:41.589Z,1008.8
2018-08-09T13:06:41.581Z,1008.7
2018-08-09T13:11:43.677Z,1008.7
2018-08-09T13:16:43.706Z,1008.7
2018-08-09T13:21:43.633Z,1008.6
2018-08-09T13:26:43.493Z,1008.7
2018-08-09T13:31:42.684Z,1008.6
2018-08-09T13:36:42.740Z,1008.4
2018-08-09T13:41:42.742Z,1008.4
2018-08-09T13:46:43.883Z,1008.4
2018-08-09T13:51:43.428Z,1008.2
2018-08-09T13:56:45.197Z,1008.1
2018-08-09T14:01:45.450Z,1008.3
2018-08-09T14:06:44.880Z,1008.2
2018-08-09T14:11:50.757Z,1008.1
2018-08-09T14:16:49.828Z,1008.2
2018-08-09T14:21:50.432Z,1008.2
2018-08-09T14:26:48.118Z,1008.1
2018-08-09T14:31:52.775Z,1008
2018-08-09T14:36:48.178Z,1007.9
2018-08-09T14:41:48.152Z,1007.8
2018-08-09T14:46:54.909Z,1007.8
2018-08-09T14:51:54.605Z,1007.8
2018-08-09T14:57:05.672Z,1007.7
2018-08-09T15:02:05.499Z,1007.7
2018-08-09T15:07:05.408Z,1007.7
2018-08-09T15:12:05.552Z,1007.8
2018-08-09T15:17:05.624Z,1007.8
2018-08-09T15:22:05.539Z,1007.8
2018-08-09T15:27:05.564Z,1007.8
2018-08-09T15:32:08.770Z,1007.8
2018-08-09T15:37:08.536Z,1007.7
2018-08-09T15:42:18.618Z,1007.7
2018-08-09T15:47:19.170Z,1007.6
2018-08-09T15:52:18.892Z,1007.7
2018-08-09T15:57:18.384Z,1007.6
2018-08-09T16:02:18.649Z,1007.6
2018-08-09T16:07:18.386Z,1007.8
2018-08-09T16:12:18.376Z,1007.8
2018-08-09T16:17:18.647Z,1007.8
2018-08-09T16:22:18.653Z,1007.8
2018-08-09T16:27:31.455Z,1007.7
2018-08-09T16:32:31.193Z,1007.8
2018-08-09T16:37:31.210Z,1007.8
2018-08-09T16:42:31.191Z,1007.9
2018-08-09T16:47:31.203Z,1007.9
2018-08-09T16:52:31.201Z,1007.9
2018-08-09T16:57:31.204Z,1007.9
2018-08-09T17:02:36.592Z,1007.9
2018-08-09T17:07:36.317Z,1007.9
2018-08-09T17:12:48.285Z,1008
2018-08-09T17:17:48.015Z,1008
2018-08-09T17:22:48.055Z,1008
2018-08-09T17:27:48.026Z,1008.1
2018-08-09T17:32:48.071Z,1008.3
2018-08-09T17:37:48.020Z,1008.4
2018-08-09T17:42:48.013Z,1008.4
2018-08-09T17:47:50.807Z,1008.4
2018-08-09T17:52:50.514Z,1008.4
2018-08-09T17:58:02.716Z,1008.5
2018-08-09T18:03:02.297Z,1008.4
2018-08-09T18:08:02.381Z,1008.4
2018-08-09T18:13:02.517Z,1008.5
2018-08-09T18:18:02.365Z,1008.7
2018-08-09T18:23:02.382Z,1008.7
2018-08-09T18:28:02.518Z,1008.7
2018-08-09T18:33:02.381Z,1008.8
2018-08-09T18:38:02.371Z,1008.8
2018-08-09T18:43:14.356Z,1008.8
2018-08-09T18:48:14.101Z,1008.8
2018-08-09T18:53:14.091Z,1008.8
2018-08-09T18:58:14.169Z,1009
2018-08-09T19:03:14.102Z,1009.1
2018-08-09T19:08:14.108Z,1009.2
2018-08-09T19:13:14.110Z,1009.2
2018-08-09T19:18:18.283Z,1009.4
2018-08-09T19:23:16.584Z,1009.4
2018-08-09T19:28:28.115Z,1009.4
2018-08-09T19:33:27.779Z,1009.4
2018-08-09T19:38:27.846Z,1009.5
2018-08-09T19:43:27.810Z,1009.6
2018-08-09T19:48:28.035Z,1009.7
2018-08-09T19:53:27.781Z,1009.8
2018-08-09T19:58:27.764Z,1009.9
2018-08-09T20:03:27.780Z,1009.9
2018-08-09T20:08:28.093Z,1010.1
2018-08-09T20:13:28.327Z,1010.2
2018-08-09T20:18:27.895Z,1010.2
2018-08-09T20:23:27.957Z,1010.4
2018-08-09T20:28:27.915Z,1010.4
2018-08-09T20:33:27.910Z,1010.6
2018-08-09T20:38:40.361Z,1010.6
2018-08-09T20:43:40.203Z,1010.8
2018-08-09T20:48:40.091Z,1010.9
2018-08-09T20:53:40.106Z,1011
2018-08-09T20:58:40.110Z,1011.2
2018-08-09T21:03:40.101Z,1011.8
2018-08-09T21:08:40.121Z,1012.1
2018-08-09T21:13:43.015Z,1012.4
2018-08-09T21:18:42.748Z,1012.7
2018-08-09T21:23:55.014Z,1013.2
2018-08-09T21:28:54.748Z,1013.6
2018-08-09T21:33:54.727Z,1014.1
2018-08-09T21:38:54.910Z,1014.5
2018-08-09T21:43:54.754Z,1014.8
2018-08-09T21:48:54.787Z,1015
2018-08-09T21:53:54.743Z,1015.4
2018-08-09T21:58:59.777Z,1015.6
2018-08-09T22:03:59.576Z,1015.9
2018-08-09T22:09:11.539Z,1016.1
2018-08-09T22:14:11.291Z,1016.3
2018-08-09T22:19:11.327Z,1016.3
2018-08-09T22:24:11.298Z,1016.3
2018-08-09T22:29:11.405Z,1016.4
2018-08-09T22:34:11.493Z,1016.4
2018-08-09T22:39:11.426Z,1016.4
2018-08-09T22:44:11.295Z,1016.5
2018-08-09T22:49:11.486Z,1016.7
2018-08-09T22:54:23.175Z,1016.8
2018-08-09T22:59:23.011Z,1016.8
2018-08-09T23:04:22.893Z,1016.8
2018-08-09T23:09:23.116Z,1017
2018-08-09T23:14:22.851Z,1016.9
2018-08-09T23:19:22.885Z,1016.9
2018-08-09T23:24:23.105Z,1017
2018-08-09T23:29:23.046Z,1017
2018-08-09T23:34:23.262Z,1017.1
2018-08-09T23:39:35.055Z,1017.1
2018-08-09T23:44:34.771Z,1017.1
2018-08-09T23:49:34.933Z,1017.1
2018-08-09T23:54:34.788Z,1017
2018-08-09T23:59:34.819Z,1017
